sensor_id;sensor_type;location;lat;lon;timestamp;P1;durP1;ratioP1;P2;durP2;ratioP2
53977;SDS011;39886;47.984;-1.586;2023-03-31T00:02:01;6.85;;;2.50;;
53977;SDS011;39886;47.984;-1.586;2023-03-31T00:04:37;6.35;;;2.50;;
53977;SDS011;39886;47.984;-1.586;2023-03-31T00:07:10;7.07;;;2.20;;
53977;SDS011;39886;47.984;-1.586;2023-03-31T00:09:38;8.68;;;2.20;;
53977;SDS011;39886;47.984;-1.586;2023-03-31T00:12:06;6.45;;;2.25;;
53977;SDS011;39886;47.984;-1.586;2023-03-31T00:14:31;8.13;;;2.88;;
53977;SDS011;39886;47.984;-1.586;2023-03-31T00:16:57;10.38;;;2.67;;
53977;SDS011;39886;47.984;-1.586;2023-03-31T00:19:23;8.18;;;2.33;;
53977;SDS011;39886;47.984;-1.586;2023-03-31T00:21:49;8.90;;;2.60;;
53977;SDS011;39886;47.984;-1.586;2023-03-31T00:24:16;7.18;;;2.67;;
53977;SDS011;39886;47.984;-1.586;2023-03-31T00:26:42;8.80;;;2.47;;
53977;SDS011;39886;47.984;-1.586;2023-03-31T00:29:09;5.80;;;2.38;;
53977;SDS011;39886;47.984;-1.586;2023-03-31T00:31:37;9.18;;;2.88;;
53977;SDS011;39886;47.984;-1.586;2023-03-31T00:34:05;6.22;;;2.15;;
53977;SDS011;39886;47.984;-1.586;2023-03-31T00:36:32;10.88;;;3.30;;
53977;SDS011;39886;47.984;-1.586;2023-03-31T00:39:02;8.90;;;2.83;;
53977;SDS011;39886;47.984;-1.586;2023-03-31T00:41:33;9.77;;;2.87;;
53977;SDS011;39886;47.984;-1.586;2023-03-31T00:46:35;8.20;;;2.42;;
53977;SDS011;39886;47.984;-1.586;2023-03-31T00:49:21;7.22;;;2.83;;
53977;SDS011;39886;47.984;-1.586;2023-03-31T00:51:51;10.05;;;2.83;;
53977;SDS011;39886;47.984;-1.586;2023-03-31T00:54:20;9.90;;;2.90;;
53977;SDS011;39886;47.984;-1.586;2023-03-31T00:56:50;8.10;;;2.50;;
53977;SDS011;39886;47.984;-1.586;2023-03-31T00:59:19;8.18;;;2.88;;
53977;SDS011;39886;47.984;-1.586;2023-03-31T01:01:51;9.43;;;3.15;;
53977;SDS011;39886;47.984;-1.586;2023-03-31T01:04:18;9.23;;;2.65;;
53977;SDS011;39886;47.984;-1.586;2023-03-31T01:06:53;7.68;;;2.58;;
53977;SDS011;39886;47.984;-1.586;2023-03-31T01:09:30;9.27;;;2.90;;
53977;SDS011;39886;47.984;-1.586;2023-03-31T01:11:59;7.07;;;2.88;;
53977;SDS011;39886;47.984;-1.586;2023-03-31T01:14:29;8.18;;;2.78;;
53977;SDS011;39886;47.984;-1.586;2023-03-31T01:16:55;8.38;;;2.40;;
53977;SDS011;39886;47.984;-1.586;2023-03-31T01:19:29;7.93;;;2.47;;
53977;SDS011;39886;47.984;-1.586;2023-03-31T01:22:26;10.63;;;3.00;;
53977;SDS011;39886;47.984;-1.586;2023-03-31T01:25:53;8.27;;;3.10;;
53977;SDS011;39886;47.984;-1.586;2023-03-31T01:36:29;10.07;;;3.03;;
53977;SDS011;39886;47.984;-1.586;2023-03-31T01:42:38;8.73;;;3.00;;
53977;SDS011;39886;47.984;-1.586;2023-03-31T01:45:36;10.32;;;3.88;;
53977;SDS011;39886;47.984;-1.586;2023-03-31T01:51:18;8.00;;;2.95;;
53977;SDS011;39886;47.984;-1.586;2023-03-31T01:56:54;9.18;;;2.50;;
53977;SDS011;39886;47.984;-1.586;2023-03-31T01:59:28;9.52;;;3.17;;
53977;SDS011;39886;47.984;-1.586;2023-03-31T02:02:19;8.23;;;2.90;;
53977;SDS011;39886;47.984;-1.586;2023-03-31T02:04:54;9.32;;;3.20;;
53977;SDS011;39886;47.984;-1.586;2023-03-31T02:07:33;8.45;;;2.80;;
53977;SDS011;39886;47.984;-1.586;2023-03-31T02:10:06;10.05;;;2.97;;
53977;SDS011;39886;47.984;-1.586;2023-03-31T02:12:35;11.40;;;3.35;;
53977;SDS011;39886;47.984;-1.586;2023-03-31T02:15:06;9.57;;;2.83;;
53977;SDS011;39886;47.984;-1.586;2023-03-31T02:17:35;9.10;;;2.97;;
53977;SDS011;39886;47.984;-1.586;2023-03-31T02:20:06;8.80;;;3.20;;
53977;SDS011;39886;47.984;-1.586;2023-03-31T02:22:36;9.63;;;3.10;;
53977;SDS011;39886;47.984;-1.586;2023-03-31T02:25:05;10.45;;;3.00;;
53977;SDS011;39886;47.984;-1.586;2023-03-31T02:27:34;10.25;;;3.20;;
53977;SDS011;39886;47.984;-1.586;2023-03-31T02:30:04;9.73;;;3.28;;
53977;SDS011;39886;47.984;-1.586;2023-03-31T02:34:57;8.43;;;2.65;;
53977;SDS011;39886;47.984;-1.586;2023-03-31T02:37:24;9.27;;;3.28;;
53977;SDS011;39886;47.984;-1.586;2023-03-31T02:39:52;11.27;;;3.00;;
53977;SDS011;39886;47.984;-1.586;2023-03-31T02:42:20;9.45;;;3.10;;
53977;SDS011;39886;47.984;-1.586;2023-03-31T02:44:47;10.25;;;3.20;;
53977;SDS011;39886;47.984;-1.586;2023-03-31T02:47:13;11.00;;;3.28;;
53977;SDS011;39886;47.984;-1.586;2023-03-31T02:49:42;9.68;;;3.30;;
53977;SDS011;39886;47.984;-1.586;2023-03-31T02:52:26;8.47;;;3.10;;
53977;SDS011;39886;47.984;-1.586;2023-03-31T02:55:17;9.68;;;2.97;;
53977;SDS011;39886;47.984;-1.586;2023-03-31T03:11:59;8.63;;;3.05;;
53977;SDS011;39886;47.984;-1.586;2023-03-31T03:17:38;10.23;;;3.30;;
53977;SDS011;39886;47.984;-1.586;2023-03-31T03:20:09;11.35;;;3.22;;
53977;SDS011;39886;47.984;-1.586;2023-03-31T03:22:36;10.68;;;3.22;;
53977;SDS011;39886;47.984;-1.586;2023-03-31T03:25:05;9.63;;;3.20;;
53977;SDS011;39886;47.984;-1.586;2023-03-31T03:27:36;10.75;;;3.25;;
53977;SDS011;39886;47.984;-1.586;2023-03-31T03:30:03;9.57;;;3.08;;
53977;SDS011;39886;47.984;-1.586;2023-03-31T03:32:30;11.55;;;3.30;;
53977;SDS011;39886;47.984;-1.586;2023-03-31T03:34:58;11.50;;;3.35;;
53977;SDS011;39886;47.984;-1.586;2023-03-31T03:37:24;9.90;;;3.45;;
53977;SDS011;39886;47.984;-1.586;2023-03-31T03:39:50;9.65;;;3.47;;
53977;SDS011;39886;47.984;-1.586;2023-03-31T03:42:16;9.65;;;3.10;;
53977;SDS011;39886;47.984;-1.586;2023-03-31T03:44:42;11.20;;;3.00;;
53977;SDS011;39886;47.984;-1.586;2023-03-31T03:47:07;10.02;;;2.97;;
53977;SDS011;39886;47.984;-1.586;2023-03-31T03:49:33;9.32;;;3.13;;
53977;SDS011;39886;47.984;-1.586;2023-03-31T03:51:59;10.98;;;3.40;;
53977;SDS011;39886;47.984;-1.586;2023-03-31T03:54:24;8.02;;;2.72;;
53977;SDS011;39886;47.984;-1.586;2023-03-31T03:56:50;8.27;;;2.95;;
53977;SDS011;39886;47.984;-1.586;2023-03-31T03:59:16;10.18;;;2.75;;
53977;SDS011;39886;47.984;-1.586;2023-03-31T04:01:42;8.18;;;2.70;;
53977;SDS011;39886;47.984;-1.586;2023-03-31T04:04:07;9.50;;;3.35;;
53977;SDS011;39886;47.984;-1.586;2023-03-31T04:06:33;8.02;;;3.13;;
53977;SDS011;39886;47.984;-1.586;2023-03-31T04:08:59;8.20;;;3.15;;
53977;SDS011;39886;47.984;-1.586;2023-03-31T04:11:25;9.30;;;3.20;;
53977;SDS011;39886;47.984;-1.586;2023-03-31T04:13:52;9.60;;;2.83;;
53977;SDS011;39886;47.984;-1.586;2023-03-31T04:16:18;8.90;;;2.75;;
53977;SDS011;39886;47.984;-1.586;2023-03-31T04:18:43;9.45;;;2.97;;
53977;SDS011;39886;47.984;-1.586;2023-03-31T04:21:12;12.00;;;4.13;;
53977;SDS011;39886;47.984;-1.586;2023-03-31T04:23:47;9.82;;;3.30;;
53977;SDS011;39886;47.984;-1.586;2023-03-31T04:26:18;9.70;;;3.60;;
53977;SDS011;39886;47.984;-1.586;2023-03-31T04:28:50;8.60;;;2.78;;
53977;SDS011;39886;47.984;-1.586;2023-03-31T04:31:16;10.45;;;3.25;;
53977;SDS011;39886;47.984;-1.586;2023-03-31T04:33:51;8.43;;;3.13;;
53977;SDS011;39886;47.984;-1.586;2023-03-31T04:36:17;10.07;;;2.95;;
53977;SDS011;39886;47.984;-1.586;2023-03-31T04:38:43;10.32;;;3.33;;
53977;SDS011;39886;47.984;-1.586;2023-03-31T04:41:15;11.48;;;3.63;;
53977;SDS011;39886;47.984;-1.586;2023-03-31T04:43:41;9.52;;;2.70;;
53977;SDS011;39886;47.984;-1.586;2023-03-31T04:46:07;8.88;;;3.03;;
53977;SDS011;39886;47.984;-1.586;2023-03-31T04:48:33;8.48;;;3.22;;
53977;SDS011;39886;47.984;-1.586;2023-03-31T04:50:59;10.32;;;3.40;;
53977;SDS011;39886;47.984;-1.586;2023-03-31T04:53:25;9.75;;;3.13;;
53977;SDS011;39886;47.984;-1.586;2023-03-31T04:55:51;8.25;;;3.20;;
53977;SDS011;39886;47.984;-1.586;2023-03-31T04:58:17;9.43;;;3.50;;
53977;SDS011;39886;47.984;-1.586;2023-03-31T05:00:43;9.60;;;3.33;;
53977;SDS011;39886;47.984;-1.586;2023-03-31T05:03:08;8.07;;;2.70;;
53977;SDS011;39886;47.984;-1.586;2023-03-31T05:05:35;10.02;;;3.20;;
53977;SDS011;39886;47.984;-1.586;2023-03-31T05:08:01;11.80;;;3.40;;
53977;SDS011;39886;47.984;-1.586;2023-03-31T05:10:28;9.60;;;3.17;;
53977;SDS011;39886;47.984;-1.586;2023-03-31T05:12:55;11.10;;;2.90;;
53977;SDS011;39886;47.984;-1.586;2023-03-31T05:15:21;8.50;;;3.10;;
53977;SDS011;39886;47.984;-1.586;2023-03-31T05:17:48;10.85;;;3.28;;
53977;SDS011;39886;47.984;-1.586;2023-03-31T05:20:14;8.02;;;2.80;;
53977;SDS011;39886;47.984;-1.586;2023-03-31T05:22:41;10.35;;;2.85;;
53977;SDS011;39886;47.984;-1.586;2023-03-31T05:25:07;10.70;;;3.28;;
53977;SDS011;39886;47.984;-1.586;2023-03-31T05:27:33;8.55;;;3.03;;
53977;SDS011;39886;47.984;-1.586;2023-03-31T05:30:00;9.10;;;3.38;;
53977;SDS011;39886;47.984;-1.586;2023-03-31T05:32:28;7.97;;;2.95;;
53977;SDS011;39886;47.984;-1.586;2023-03-31T05:34:54;10.73;;;3.30;;
53977;SDS011;39886;47.984;-1.586;2023-03-31T05:37:23;8.88;;;2.55;;
53977;SDS011;39886;47.984;-1.586;2023-03-31T05:39:49;10.85;;;3.10;;
53977;SDS011;39886;47.984;-1.586;2023-03-31T05:42:16;7.78;;;3.05;;
53977;SDS011;39886;47.984;-1.586;2023-03-31T05:44:42;8.65;;;3.20;;
53977;SDS011;39886;47.984;-1.586;2023-03-31T05:47:08;9.45;;;3.22;;
53977;SDS011;39886;47.984;-1.586;2023-03-31T05:49:33;8.05;;;2.88;;
53977;SDS011;39886;47.984;-1.586;2023-03-31T05:51:59;6.93;;;2.95;;
53977;SDS011;39886;47.984;-1.586;2023-03-31T05:54:25;9.93;;;3.25;;
53977;SDS011;39886;47.984;-1.586;2023-03-31T05:56:51;7.88;;;2.90;;
53977;SDS011;39886;47.984;-1.586;2023-03-31T05:59:17;14.15;;;3.45;;
53977;SDS011;39886;47.984;-1.586;2023-03-31T06:01:43;9.18;;;2.88;;
53977;SDS011;39886;47.984;-1.586;2023-03-31T06:04:09;9.43;;;2.80;;
53977;SDS011;39886;47.984;-1.586;2023-03-31T06:06:35;8.48;;;3.30;;
53977;SDS011;39886;47.984;-1.586;2023-03-31T06:09:02;8.82;;;3.03;;
53977;SDS011;39886;47.984;-1.586;2023-03-31T06:11:28;9.30;;;3.00;;
53977;SDS011;39886;47.984;-1.586;2023-03-31T06:13:54;9.18;;;3.10;;
53977;SDS011;39886;47.984;-1.586;2023-03-31T06:16:20;8.52;;;2.80;;
53977;SDS011;39886;47.984;-1.586;2023-03-31T06:18:46;8.20;;;2.78;;
53977;SDS011;39886;47.984;-1.586;2023-03-31T06:21:12;7.20;;;2.75;;
53977;SDS011;39886;47.984;-1.586;2023-03-31T06:23:40;7.07;;;2.72;;
53977;SDS011;39886;47.984;-1.586;2023-03-31T06:26:10;9.18;;;3.25;;
53977;SDS011;39886;47.984;-1.586;2023-03-31T06:28:37;8.05;;;2.60;;
53977;SDS011;39886;47.984;-1.586;2023-03-31T06:31:04;9.55;;;3.38;;
53977;SDS011;39886;47.984;-1.586;2023-03-31T06:33:38;7.75;;;2.63;;
53977;SDS011;39886;47.984;-1.586;2023-03-31T06:36:05;7.82;;;2.63;;
53977;SDS011;39886;47.984;-1.586;2023-03-31T06:38:33;6.68;;;2.58;;
53977;SDS011;39886;47.984;-1.586;2023-03-31T06:41:00;11.07;;;3.35;;
53977;SDS011;39886;47.984;-1.586;2023-03-31T06:43:26;9.27;;;2.83;;
53977;SDS011;39886;47.984;-1.586;2023-03-31T06:45:52;9.93;;;3.13;;
53977;SDS011;39886;47.984;-1.586;2023-03-31T06:48:18;9.10;;;2.78;;
53977;SDS011;39886;47.984;-1.586;2023-03-31T06:50:44;9.40;;;3.10;;
53977;SDS011;39886;47.984;-1.586;2023-03-31T06:53:10;9.55;;;2.97;;
53977;SDS011;39886;47.984;-1.586;2023-03-31T06:55:36;7.68;;;2.83;;
53977;SDS011;39886;47.984;-1.586;2023-03-31T06:58:02;8.63;;;3.38;;
53977;SDS011;39886;47.984;-1.586;2023-03-31T07:00:29;8.63;;;2.58;;
53977;SDS011;39886;47.984;-1.586;2023-03-31T07:02:55;8.38;;;2.78;;
53977;SDS011;39886;47.984;-1.586;2023-03-31T07:05:21;12.17;;;3.20;;
53977;SDS011;39886;47.984;-1.586;2023-03-31T07:07:53;9.73;;;3.53;;
53977;SDS011;39886;47.984;-1.586;2023-03-31T07:10:21;11.20;;;3.10;;
53977;SDS011;39886;47.984;-1.586;2023-03-31T07:12:48;6.53;;;2.63;;
53977;SDS011;39886;47.984;-1.586;2023-03-31T07:15:13;8.13;;;2.75;;
53977;SDS011;39886;47.984;-1.586;2023-03-31T07:17:40;9.52;;;2.80;;
53977;SDS011;39886;47.984;-1.586;2023-03-31T07:20:10;8.55;;;2.85;;
53977;SDS011;39886;47.984;-1.586;2023-03-31T07:22:39;10.10;;;3.13;;
53977;SDS011;39886;47.984;-1.586;2023-03-31T07:25:06;6.35;;;2.38;;
53977;SDS011;39886;47.984;-1.586;2023-03-31T07:27:33;10.98;;;3.20;;
53977;SDS011;39886;47.984;-1.586;2023-03-31T07:29:59;9.10;;;2.53;;
53977;SDS011;39886;47.984;-1.586;2023-03-31T07:32:25;8.45;;;2.60;;
53977;SDS011;39886;47.984;-1.586;2023-03-31T07:34:51;10.40;;;2.80;;
53977;SDS011;39886;47.984;-1.586;2023-03-31T07:37:16;8.57;;;2.72;;
53977;SDS011;39886;47.984;-1.586;2023-03-31T07:39:42;7.40;;;2.72;;
53977;SDS011;39886;47.984;-1.586;2023-03-31T07:42:08;9.32;;;3.60;;
53977;SDS011;39886;47.984;-1.586;2023-03-31T07:44:34;7.68;;;2.58;;
53977;SDS011;39886;47.984;-1.586;2023-03-31T07:47:01;7.85;;;2.72;;
53977;SDS011;39886;47.984;-1.586;2023-03-31T07:49:30;8.23;;;2.60;;
53977;SDS011;39886;47.984;-1.586;2023-03-31T07:51:57;10.52;;;3.20;;
53977;SDS011;39886;47.984;-1.586;2023-03-31T07:54:23;7.70;;;2.45;;
53977;SDS011;39886;47.984;-1.586;2023-03-31T07:56:48;9.80;;;2.55;;
53977;SDS011;39886;47.984;-1.586;2023-03-31T07:59:14;9.95;;;2.78;;
53977;SDS011;39886;47.984;-1.586;2023-03-31T08:01:40;12.02;;;3.50;;
53977;SDS011;39886;47.984;-1.586;2023-03-31T08:04:06;9.68;;;2.70;;
53977;SDS011;39886;47.984;-1.586;2023-03-31T08:06:32;8.15;;;2.60;;
53977;SDS011;39886;47.984;-1.586;2023-03-31T08:08:58;11.32;;;2.95;;
53977;SDS011;39886;47.984;-1.586;2023-03-31T08:11:24;8.50;;;2.90;;
53977;SDS011;39886;47.984;-1.586;2023-03-31T08:13:50;8.13;;;2.45;;
53977;SDS011;39886;47.984;-1.586;2023-03-31T08:16:17;11.95;;;2.60;;
53977;SDS011;39886;47.984;-1.586;2023-03-31T08:18:42;7.95;;;2.90;;
53977;SDS011;39886;47.984;-1.586;2023-03-31T08:21:08;9.05;;;2.70;;
53977;SDS011;39886;47.984;-1.586;2023-03-31T08:23:35;9.63;;;3.67;;
53977;SDS011;39886;47.984;-1.586;2023-03-31T08:26:14;10.23;;;3.60;;
53977;SDS011;39886;47.984;-1.586;2023-03-31T08:31:10;9.77;;;3.10;;
53977;SDS011;39886;47.984;-1.586;2023-03-31T08:33:36;10.68;;;3.38;;
53977;SDS011;39886;47.984;-1.586;2023-03-31T08:36:03;9.75;;;2.80;;
53977;SDS011;39886;47.984;-1.586;2023-03-31T08:38:33;8.77;;;3.30;;
53977;SDS011;39886;47.984;-1.586;2023-03-31T08:41:01;12.05;;;3.85;;
53977;SDS011;39886;47.984;-1.586;2023-03-31T08:43:33;7.22;;;2.90;;
53977;SDS011;39886;47.984;-1.586;2023-03-31T08:46:05;11.02;;;3.17;;
53977;SDS011;39886;47.984;-1.586;2023-03-31T08:48:37;6.68;;;2.70;;
53977;SDS011;39886;47.984;-1.586;2023-03-31T08:51:19;8.25;;;2.85;;
53977;SDS011;39886;47.984;-1.586;2023-03-31T08:53:53;8.02;;;2.85;;
53977;SDS011;39886;47.984;-1.586;2023-03-31T08:56:33;8.80;;;2.78;;
53977;SDS011;39886;47.984;-1.586;2023-03-31T08:59:04;8.90;;;2.73;;
53977;SDS011;39886;47.984;-1.586;2023-03-31T09:07:03;7.60;;;2.85;;
53977;SDS011;39886;47.984;-1.586;2023-03-31T09:09:44;9.55;;;2.90;;
53977;SDS011;39886;47.984;-1.586;2023-03-31T09:12:20;9.55;;;3.15;;
53977;SDS011;39886;47.984;-1.586;2023-03-31T09:15:01;8.50;;;2.80;;
53977;SDS011;39886;47.984;-1.586;2023-03-31T09:17:33;7.43;;;2.90;;
53977;SDS011;39886;47.984;-1.586;2023-03-31T09:20:06;7.25;;;2.53;;
53977;SDS011;39886;47.984;-1.586;2023-03-31T09:22:56;11.32;;;3.53;;
53977;SDS011;39886;47.984;-1.586;2023-03-31T09:25:44;10.90;;;3.17;;
53977;SDS011;39886;47.984;-1.586;2023-03-31T09:28:21;11.63;;;3.10;;
53977;SDS011;39886;47.984;-1.586;2023-03-31T09:30:49;14.13;;;2.97;;
53977;SDS011;39886;47.984;-1.586;2023-03-31T09:35:42;9.00;;;2.95;;
53977;SDS011;39886;47.984;-1.586;2023-03-31T09:38:11;9.45;;;2.78;;
53977;SDS011;39886;47.984;-1.586;2023-03-31T09:40:39;8.13;;;2.72;;
53977;SDS011;39886;47.984;-1.586;2023-03-31T09:43:07;9.70;;;3.20;;
53977;SDS011;39886;47.984;-1.586;2023-03-31T09:45:43;19.13;;;3.10;;
53977;SDS011;39886;47.984;-1.586;2023-03-31T09:48:17;13.00;;;4.60;;
53977;SDS011;39886;47.984;-1.586;2023-03-31T09:50:51;9.50;;;4.45;;
53977;SDS011;39886;47.984;-1.586;2023-03-31T09:59:15;10.73;;;4.00;;
53977;SDS011;39886;47.984;-1.586;2023-03-31T10:01:46;9.27;;;3.67;;
53977;SDS011;39886;47.984;-1.586;2023-03-31T10:04:21;14.23;;;4.32;;
53977;SDS011;39886;47.984;-1.586;2023-03-31T10:06:49;14.25;;;3.67;;
53977;SDS011;39886;47.984;-1.586;2023-03-31T10:09:19;13.60;;;3.72;;
53977;SDS011;39886;47.984;-1.586;2023-03-31T10:11:56;7.22;;;3.22;;
53977;SDS011;39886;47.984;-1.586;2023-03-31T10:14:37;12.38;;;3.60;;
53977;SDS011;39886;47.984;-1.586;2023-03-31T10:17:15;12.15;;;4.07;;
53977;SDS011;39886;47.984;-1.586;2023-03-31T10:19:53;10.00;;;3.72;;
53977;SDS011;39886;47.984;-1.586;2023-03-31T10:22:32;10.70;;;3.40;;
53977;SDS011;39886;47.984;-1.586;2023-03-31T10:25:16;12.52;;;3.67;;
53977;SDS011;39886;47.984;-1.586;2023-03-31T10:27:46;8.85;;;3.63;;
53977;SDS011;39886;47.984;-1.586;2023-03-31T10:30:23;9.25;;;3.05;;
53977;SDS011;39886;47.984;-1.586;2023-03-31T10:32:53;9.38;;;4.20;;
53977;SDS011;39886;47.984;-1.586;2023-03-31T10:35:23;8.90;;;3.55;;
53977;SDS011;39886;47.984;-1.586;2023-03-31T10:37:57;12.15;;;3.55;;
53977;SDS011;39886;47.984;-1.586;2023-03-31T10:40:28;10.57;;;3.28;;
53977;SDS011;39886;47.984;-1.586;2023-03-31T10:43:02;9.73;;;3.55;;
53977;SDS011;39886;47.984;-1.586;2023-03-31T10:45:29;10.50;;;3.33;;
53977;SDS011;39886;47.984;-1.586;2023-03-31T10:48:05;8.75;;;3.33;;
53977;SDS011;39886;47.984;-1.586;2023-03-31T10:50:53;8.73;;;3.00;;
53977;SDS011;39886;47.984;-1.586;2023-03-31T10:53:23;10.15;;;3.40;;
53977;SDS011;39886;47.984;-1.586;2023-03-31T11:01:19;6.40;;;2.97;;
53977;SDS011;39886;47.984;-1.586;2023-03-31T11:09:31;7.30;;;2.70;;
53977;SDS011;39886;47.984;-1.586;2023-03-31T11:12:30;7.97;;;3.40;;
53977;SDS011;39886;47.984;-1.586;2023-03-31T11:15:09;9.90;;;3.42;;
53977;SDS011;39886;47.984;-1.586;2023-03-31T11:23:04;7.65;;;2.75;;
53977;SDS011;39886;47.984;-1.586;2023-03-31T11:28:28;13.57;;;3.63;;
53977;SDS011;39886;47.984;-1.586;2023-03-31T11:36:36;6.90;;;2.90;;
53977;SDS011;39886;47.984;-1.586;2023-03-31T11:39:24;9.55;;;3.30;;
53977;SDS011;39886;47.984;-1.586;2023-03-31T11:42:14;8.77;;;3.28;;
53977;SDS011;39886;47.984;-1.586;2023-03-31T11:44:48;9.77;;;3.40;;
53977;SDS011;39886;47.984;-1.586;2023-03-31T11:47:19;9.23;;;3.25;;
53977;SDS011;39886;47.984;-1.586;2023-03-31T11:50:32;7.60;;;3.15;;
53977;SDS011;39886;47.984;-1.586;2023-03-31T11:52:46;6.10;;;2.80;;
53977;SDS011;39886;47.984;-1.586;2023-03-31T11:55:20;7.47;;;2.75;;
53977;SDS011;39886;47.984;-1.586;2023-03-31T11:57:53;7.13;;;3.10;;
53977;SDS011;39886;47.984;-1.586;2023-03-31T12:00:34;6.80;;;2.67;;
53977;SDS011;39886;47.984;-1.586;2023-03-31T12:06:09;7.63;;;3.13;;
53977;SDS011;39886;47.984;-1.586;2023-03-31T12:14:31;6.63;;;2.80;;
53977;SDS011;39886;47.984;-1.586;2023-03-31T12:17:19;6.93;;;2.75;;
53977;SDS011;39886;47.984;-1.586;2023-03-31T12:22:28;7.15;;;2.97;;
53977;SDS011;39886;47.984;-1.586;2023-03-31T12:24:58;8.07;;;2.88;;
53977;SDS011;39886;47.984;-1.586;2023-03-31T12:29:56;7.88;;;2.83;;
53977;SDS011;39886;47.984;-1.586;2023-03-31T12:32:27;5.82;;;2.55;;
53977;SDS011;39886;47.984;-1.586;2023-03-31T12:45:49;7.13;;;3.17;;
53977;SDS011;39886;47.984;-1.586;2023-03-31T12:52:17;6.90;;;3.10;;
53977;SDS011;39886;47.984;-1.586;2023-03-31T12:57:21;8.90;;;3.22;;
53977;SDS011;39886;47.984;-1.586;2023-03-31T13:02:42;8.73;;;2.97;;
53977;SDS011;39886;47.984;-1.586;2023-03-31T13:08:00;10.52;;;3.45;;
53977;SDS011;39886;47.984;-1.586;2023-03-31T13:10:27;9.93;;;3.35;;
53977;SDS011;39886;47.984;-1.586;2023-03-31T13:12:59;13.00;;;3.30;;
53977;SDS011;39886;47.984;-1.586;2023-03-31T13:15:51;11.20;;;3.63;;
53977;SDS011;39886;47.984;-1.586;2023-03-31T13:18:22;11.75;;;3.00;;
53977;SDS011;39886;47.984;-1.586;2023-03-31T13:21:02;12.25;;;3.15;;
53977;SDS011;39886;47.984;-1.586;2023-03-31T13:23:37;10.88;;;3.08;;
53977;SDS011;39886;47.984;-1.586;2023-03-31T13:34:26;16.75;;;3.17;;
53977;SDS011;39886;47.984;-1.586;2023-03-31T13:39:46;12.23;;;3.25;;
53977;SDS011;39886;47.984;-1.586;2023-03-31T13:45:17;10.80;;;2.83;;
53977;SDS011;39886;47.984;-1.586;2023-03-31T13:54:16;10.77;;;2.75;;
53977;SDS011;39886;47.984;-1.586;2023-03-31T14:00:20;11.45;;;2.75;;
53977;SDS011;39886;47.984;-1.586;2023-03-31T14:03:04;12.63;;;2.85;;
53977;SDS011;39886;47.984;-1.586;2023-03-31T14:05:42;9.90;;;2.77;;
53977;SDS011;39886;47.984;-1.586;2023-03-31T14:11:22;7.28;;;2.47;;
53977;SDS011;39886;47.984;-1.586;2023-03-31T14:19:29;12.30;;;2.53;;
53977;SDS011;39886;47.984;-1.586;2023-03-31T14:22:22;7.90;;;2.20;;
53977;SDS011;39886;47.984;-1.586;2023-03-31T14:25:06;6.03;;;2.13;;
53977;SDS011;39886;47.984;-1.586;2023-03-31T14:38:40;8.25;;;2.10;;
53977;SDS011;39886;47.984;-1.586;2023-03-31T14:41:05;9.43;;;2.50;;
53977;SDS011;39886;47.984;-1.586;2023-03-31T14:43:39;6.40;;;2.00;;
53977;SDS011;39886;47.984;-1.586;2023-03-31T14:46:18;8.25;;;2.38;;
53977;SDS011;39886;47.984;-1.586;2023-03-31T14:48:46;6.45;;;2.38;;
53977;SDS011;39886;47.984;-1.586;2023-03-31T14:51:14;11.98;;;2.47;;
53977;SDS011;39886;47.984;-1.586;2023-03-31T14:53:41;6.53;;;2.20;;
53977;SDS011;39886;47.984;-1.586;2023-03-31T14:56:16;5.50;;;2.08;;
53977;SDS011;39886;47.984;-1.586;2023-03-31T14:58:50;6.47;;;2.20;;
53977;SDS011;39886;47.984;-1.586;2023-03-31T15:01:18;11.18;;;2.58;;
53977;SDS011;39886;47.984;-1.586;2023-03-31T15:03:49;8.90;;;2.08;;
53977;SDS011;39886;47.984;-1.586;2023-03-31T15:06:17;5.63;;;1.90;;
53977;SDS011;39886;47.984;-1.586;2023-03-31T15:08:42;9.45;;;2.10;;
53977;SDS011;39886;47.984;-1.586;2023-03-31T15:11:16;6.20;;;2.30;;
53977;SDS011;39886;47.984;-1.586;2023-03-31T15:13:46;11.70;;;2.80;;
53977;SDS011;39886;47.984;-1.586;2023-03-31T15:16:30;7.43;;;2.10;;
53977;SDS011;39886;47.984;-1.586;2023-03-31T15:18:59;10.30;;;2.40;;
53977;SDS011;39886;47.984;-1.586;2023-03-31T15:21:30;7.50;;;1.90;;
53977;SDS011;39886;47.984;-1.586;2023-03-31T15:23:58;6.82;;;1.98;;
53977;SDS011;39886;47.984;-1.586;2023-03-31T15:26:44;8.85;;;2.38;;
53977;SDS011;39886;47.984;-1.586;2023-03-31T15:31:59;7.97;;;2.17;;
53977;SDS011;39886;47.984;-1.586;2023-03-31T15:34:26;6.38;;;1.90;;
53977;SDS011;39886;47.984;-1.586;2023-03-31T15:36:57;6.90;;;2.20;;
53977;SDS011;39886;47.984;-1.586;2023-03-31T15:39:25;11.20;;;1.95;;
53977;SDS011;39886;47.984;-1.586;2023-03-31T15:41:55;7.32;;;2.10;;
53977;SDS011;39886;47.984;-1.586;2023-03-31T15:47:15;8.20;;;2.08;;
53977;SDS011;39886;47.984;-1.586;2023-03-31T15:49:56;6.82;;;2.20;;
53977;SDS011;39886;47.984;-1.586;2023-03-31T15:52:34;7.68;;;2.17;;
53977;SDS011;39886;47.984;-1.586;2023-03-31T15:57:57;6.32;;;2.22;;
53977;SDS011;39886;47.984;-1.586;2023-03-31T16:03:33;6.35;;;2.00;;
53977;SDS011;39886;47.984;-1.586;2023-03-31T16:06:06;5.63;;;1.90;;
53977;SDS011;39886;47.984;-1.586;2023-03-31T16:08:41;6.10;;;1.80;;
53977;SDS011;39886;47.984;-1.586;2023-03-31T16:11:16;6.10;;;1.90;;
53977;SDS011;39886;47.984;-1.586;2023-03-31T16:13:49;5.55;;;1.88;;
53977;SDS011;39886;47.984;-1.586;2023-03-31T16:16:21;5.78;;;2.00;;
53977;SDS011;39886;47.984;-1.586;2023-03-31T16:18:48;5.20;;;1.77;;
53977;SDS011;39886;47.984;-1.586;2023-03-31T16:21:27;5.30;;;1.80;;
53977;SDS011;39886;47.984;-1.586;2023-03-31T16:24:01;6.53;;;2.05;;
53977;SDS011;39886;47.984;-1.586;2023-03-31T16:26:27;5.47;;;1.80;;
53977;SDS011;39886;47.984;-1.586;2023-03-31T16:28:54;5.97;;;2.08;;
53977;SDS011;39886;47.984;-1.586;2023-03-31T16:33:58;6.47;;;1.90;;
53977;SDS011;39886;47.984;-1.586;2023-03-31T16:36:25;5.60;;;1.80;;
53977;SDS011;39886;47.984;-1.586;2023-03-31T16:38:51;6.05;;;1.90;;
53977;SDS011;39886;47.984;-1.586;2023-03-31T16:41:22;5.75;;;1.70;;
53977;SDS011;39886;47.984;-1.586;2023-03-31T16:43:49;4.25;;;1.73;;
53977;SDS011;39886;47.984;-1.586;2023-03-31T16:46:18;4.72;;;1.92;;
53977;SDS011;39886;47.984;-1.586;2023-03-31T16:48:45;4.28;;;1.60;;
53977;SDS011;39886;47.984;-1.586;2023-03-31T16:51:10;7.13;;;2.08;;
53977;SDS011;39886;47.984;-1.586;2023-03-31T16:53:36;5.57;;;2.05;;
53977;SDS011;39886;47.984;-1.586;2023-03-31T16:56:03;5.78;;;2.08;;
53977;SDS011;39886;47.984;-1.586;2023-03-31T16:58:32;5.60;;;2.13;;
53977;SDS011;39886;47.984;-1.586;2023-03-31T17:00:58;5.05;;;1.88;;
53977;SDS011;39886;47.984;-1.586;2023-03-31T17:03:24;4.75;;;1.63;;
53977;SDS011;39886;47.984;-1.586;2023-03-31T17:05:52;5.65;;;1.80;;
53977;SDS011;39886;47.984;-1.586;2023-03-31T17:08:20;4.18;;;1.80;;
53977;SDS011;39886;47.984;-1.586;2023-03-31T17:10:53;4.75;;;1.52;;
53977;SDS011;39886;47.984;-1.586;2023-03-31T17:13:22;5.70;;;1.90;;
53977;SDS011;39886;47.984;-1.586;2023-03-31T17:15:47;5.85;;;1.77;;
53977;SDS011;39886;47.984;-1.586;2023-03-31T17:18:14;4.53;;;1.85;;
53977;SDS011;39886;47.984;-1.586;2023-03-31T17:20:40;8.15;;;2.03;;
53977;SDS011;39886;47.984;-1.586;2023-03-31T17:23:06;4.68;;;1.52;;
53977;SDS011;39886;47.984;-1.586;2023-03-31T17:25:32;5.35;;;2.00;;
53977;SDS011;39886;47.984;-1.586;2023-03-31T17:28:00;4.00;;;1.58;;
53977;SDS011;39886;47.984;-1.586;2023-03-31T17:30:29;4.57;;;2.03;;
53977;SDS011;39886;47.984;-1.586;2023-03-31T17:32:56;5.45;;;1.70;;
53977;SDS011;39886;47.984;-1.586;2023-03-31T17:35:22;5.60;;;1.70;;
53977;SDS011;39886;47.984;-1.586;2023-03-31T17:37:49;5.90;;;1.90;;
53977;SDS011;39886;47.984;-1.586;2023-03-31T17:40:19;2.70;;;1.48;;
53977;SDS011;39886;47.984;-1.586;2023-03-31T17:42:46;5.30;;;1.98;;
53977;SDS011;39886;47.984;-1.586;2023-03-31T17:45:12;4.30;;;1.73;;
53977;SDS011;39886;47.984;-1.586;2023-03-31T17:47:39;4.88;;;1.65;;